sensor_id;sensor_type;location;lat;lon;timestamp;pressure;altitude;pressure_sealevel;temperature;humidity
32933;BME280;19444;50.518;10.870;2022-08-27T00:01:51;96234.88;;;16.90;100.00
32933;BME280;19444;50.518;10.870;2022-08-27T00:04:48;96232.03;;;16.83;100.00
32933;BME280;19444;50.518;10.870;2022-08-27T00:07:46;96233.63;;;17.03;100.00
32933;BME280;19444;50.518;10.870;2022-08-27T00:10:43;96242.56;;;16.88;100.00
32933;BME280;19444;50.518;10.870;2022-08-27T00:13:40;96256.31;;;16.79;100.00
32933;BME280;19444;50.518;10.870;2022-08-27T00:16:37;96261.72;;;16.79;100.00
32933;BME280;19444;50.518;10.870;2022-08-27T00:19:35;96259.53;;;16.85;100.00
32933;BME280;19444;50.518;10.870;2022-08-27T00:22:32;96261.22;;;16.73;100.00
32933;BME280;19444;50.518;10.870;2022-08-27T00:25:29;96267.06;;;16.75;100.00
32933;BME280;19444;50.518;10.870;2022-08-27T00:28:27;96263.22;;;16.76;100.00
32933;BME280;19444;50.518;10.870;2022-08-27T00:31:24;96238.25;;;16.83;100.00
32933;BME280;19444;50.518;10.870;2022-08-27T00:34:23;96250.63;;;16.84;100.00
32933;BME280;19444;50.518;10.870;2022-08-27T00:37:20;96262.59;;;16.83;100.00
32933;BME280;19444;50.518;10.870;2022-08-27T00:40:20;96258.28;;;16.82;100.00
32933;BME280;19444;50.518;10.870;2022-08-27T00:43:22;96244.50;;;16.87;100.00
32933;BME280;19444;50.518;10.870;2022-08-27T00:47:04;96248.59;;;16.81;100.00
32933;BME280;19444;50.518;10.870;2022-08-27T00:50:11;96260.75;;;16.71;100.00
32933;BME280;19444;50.518;10.870;2022-08-27T00:53:14;96259.88;;;16.83;100.00
32933;BME280;19444;50.518;10.870;2022-08-27T00:56:21;96250.88;;;16.79;100.00
32933;BME280;19444;50.518;10.870;2022-08-27T00:59:22;96252.38;;;16.61;100.00
32933;BME280;19444;50.518;10.870;2022-08-27T01:02:20;96262.59;;;16.67;100.00
32933;BME280;19444;50.518;10.870;2022-08-27T01:05:25;96256.84;;;16.69;100.00
32933;BME280;19444;50.518;10.870;2022-08-27T01:08:28;96263.13;;;16.73;100.00
32933;BME280;19444;50.518;10.870;2022-08-27T01:11:26;96262.00;;;16.58;100.00
32933;BME280;19444;50.518;10.870;2022-08-27T01:14:24;96266.09;;;16.68;100.00
32933;BME280;19444;50.518;10.870;2022-08-27T01:17:22;96258.03;;;16.87;100.00
32933;BME280;19444;50.518;10.870;2022-08-27T01:20:29;96260.31;;;16.85;100.00
32933;BME280;19444;50.518;10.870;2022-08-27T01:24:05;96271.22;;;16.89;100.00
32933;BME280;19444;50.518;10.870;2022-08-27T01:27:06;96260.34;;;16.69;100.00
32933;BME280;19444;50.518;10.870;2022-08-27T01:30:13;96257.53;;;16.66;100.00
32933;BME280;19444;50.518;10.870;2022-08-27T01:33:15;96264.63;;;16.70;100.00
32933;BME280;19444;50.518;10.870;2022-08-27T01:36:13;96270.47;;;16.57;100.00
32933;BME280;19444;50.518;10.870;2022-08-27T01:39:10;96263.91;;;16.58;100.00
32933;BME280;19444;50.518;10.870;2022-08-27T01:42:24;96272.09;;;16.61;100.00
32933;BME280;19444;50.518;10.870;2022-08-27T01:45:30;96266.28;;;16.59;100.00
32933;BME280;19444;50.518;10.870;2022-08-27T01:48:27;96280.22;;;16.45;100.00
32933;BME280;19444;50.518;10.870;2022-08-27T01:51:24;96273.78;;;16.66;100.00
32933;BME280;19444;50.518;10.870;2022-08-27T01:54:21;96267.69;;;16.69;100.00
32933;BME280;19444;50.518;10.870;2022-08-27T01:57:19;96263.84;;;16.70;100.00
32933;BME280;19444;50.518;10.870;2022-08-27T02:00:32;96273.94;;;16.73;100.00
32933;BME280;19444;50.518;10.870;2022-08-27T02:03:31;96276.56;;;16.54;100.00
32933;BME280;19444;50.518;10.870;2022-08-27T02:06:32;96273.25;;;16.44;100.00
32933;BME280;19444;50.518;10.870;2022-08-27T02:09:29;96269.34;;;16.42;100.00
32933;BME280;19444;50.518;10.870;2022-08-27T02:12:26;96270.13;;;16.74;100.00
32933;BME280;19444;50.518;10.870;2022-08-27T02:15:23;96247.03;;;16.80;100.00
32933;BME280;19444;50.518;10.870;2022-08-27T02:18:20;96269.66;;;16.72;100.00
32933;BME280;19444;50.518;10.870;2022-08-27T02:21:17;96256.22;;;16.75;100.00
32933;BME280;19444;50.518;10.870;2022-08-27T02:24:15;96263.31;;;16.64;100.00
32933;BME280;19444;50.518;10.870;2022-08-27T02:27:12;96271.97;;;16.38;100.00
32933;BME280;19444;50.518;10.870;2022-08-27T02:30:13;96276.13;;;16.52;100.00
32933;BME280;19444;50.518;10.870;2022-08-27T02:33:11;96273.06;;;16.53;100.00
32933;BME280;19444;50.518;10.870;2022-08-27T02:36:09;96284.94;;;16.64;100.00
32933;BME280;19444;50.518;10.870;2022-08-27T02:39:06;96264.50;;;16.67;100.00
32933;BME280;19444;50.518;10.870;2022-08-27T02:42:03;96270.72;;;16.52;100.00
32933;BME280;19444;50.518;10.870;2022-08-27T02:45:00;96276.03;;;16.64;100.00
32933;BME280;19444;50.518;10.870;2022-08-27T02:47:57;96255.88;;;16.77;100.00
32933;BME280;19444;50.518;10.870;2022-08-27T02:50:54;96268.81;;;16.36;100.00
32933;BME280;19444;50.518;10.870;2022-08-27T02:53:51;96278.06;;;16.35;100.00
32933;BME280;19444;50.518;10.870;2022-08-27T02:56:49;96274.81;;;16.45;100.00
32933;BME280;19444;50.518;10.870;2022-08-27T02:59:47;96282.06;;;16.57;100.00
32933;BME280;19444;50.518;10.870;2022-08-27T03:02:44;96279.38;;;16.41;100.00
32933;BME280;19444;50.518;10.870;2022-08-27T03:05:41;96273.34;;;16.48;100.00
32933;BME280;19444;50.518;10.870;2022-08-27T03:08:38;96277.44;;;16.58;100.00
32933;BME280;19444;50.518;10.870;2022-08-27T03:11:49;96279.19;;;16.50;100.00
32933;BME280;19444;50.518;10.870;2022-08-27T03:14:46;96265.31;;;16.52;100.00
32933;BME280;19444;50.518;10.870;2022-08-27T03:17:43;96273.25;;;16.60;100.00
32933;BME280;19444;50.518;10.870;2022-08-27T03:20:59;96271.06;;;16.66;100.00
32933;BME280;19444;50.518;10.870;2022-08-27T03:23:57;96272.91;;;16.77;100.00
32933;BME280;19444;50.518;10.870;2022-08-27T03:27:06;96266.78;;;16.81;100.00
32933;BME280;19444;50.518;10.870;2022-08-27T03:30:11;96260.25;;;16.66;100.00
32933;BME280;19444;50.518;10.870;2022-08-27T03:33:09;96260.34;;;16.54;100.00
32933;BME280;19444;50.518;10.870;2022-08-27T03:36:08;96265.91;;;16.61;100.00
32933;BME280;19444;50.518;10.870;2022-08-27T03:39:05;96255.97;;;16.65;100.00
32933;BME280;19444;50.518;10.870;2022-08-27T03:42:02;96263.84;;;16.70;100.00
32933;BME280;19444;50.518;10.870;2022-08-27T03:44:59;96247.84;;;16.65;100.00
32933;BME280;19444;50.518;10.870;2022-08-27T03:47:56;96257.63;;;16.69;100.00
32933;BME280;19444;50.518;10.870;2022-08-27T03:50:53;96235.28;;;16.72;100.00
32933;BME280;19444;50.518;10.870;2022-08-27T03:53:50;96232.09;;;16.86;100.00
32933;BME280;19444;50.518;10.870;2022-08-27T03:56:47;96250.19;;;16.82;100.00
32933;BME280;19444;50.518;10.870;2022-08-27T03:59:44;96256.91;;;16.72;100.00
32933;BME280;19444;50.518;10.870;2022-08-27T04:02:42;96264.25;;;16.72;100.00
32933;BME280;19444;50.518;10.870;2022-08-27T04:05:40;96270.72;;;16.67;100.00
32933;BME280;19444;50.518;10.870;2022-08-27T04:08:40;96265.81;;;16.73;100.00
32933;BME280;19444;50.518;10.870;2022-08-27T04:11:37;96264.41;;;16.63;100.00
32933;BME280;19444;50.518;10.870;2022-08-27T04:14:34;96266.28;;;16.75;100.00
32933;BME280;19444;50.518;10.870;2022-08-27T04:17:32;96267.75;;;16.72;100.00
32933;BME280;19444;50.518;10.870;2022-08-27T04:20:28;96270.13;;;16.74;100.00
32933;BME280;19444;50.518;10.870;2022-08-27T04:23:31;96269.47;;;16.81;100.00
32933;BME280;19444;50.518;10.870;2022-08-27T04:26:28;96267.44;;;16.93;100.00
32933;BME280;19444;50.518;10.870;2022-08-27T04:29:25;96278.91;;;16.87;100.00
32933;BME280;19444;50.518;10.870;2022-08-27T04:32:23;96261.59;;;16.91;100.00
32933;BME280;19444;50.518;10.870;2022-08-27T04:35:24;96267.88;;;16.95;100.00
32933;BME280;19444;50.518;10.870;2022-08-27T04:38:21;96268.59;;;16.92;100.00
32933;BME280;19444;50.518;10.870;2022-08-27T04:41:18;96289.53;;;16.95;100.00
32933;BME280;19444;50.518;10.870;2022-08-27T04:44:15;96285.88;;;16.88;100.00
32933;BME280;19444;50.518;10.870;2022-08-27T04:47:13;96279.31;;;16.89;100.00
32933;BME280;19444;50.518;10.870;2022-08-27T04:50:10;96287.88;;;16.91;100.00
32933;BME280;19444;50.518;10.870;2022-08-27T04:53:14;96288.66;;;16.91;100.00
32933;BME280;19444;50.518;10.870;2022-08-27T04:56:17;96306.16;;;16.78;100.00
32933;BME280;19444;50.518;10.870;2022-08-27T04:59:14;96310.63;;;16.70;100.00
32933;BME280;19444;50.518;10.870;2022-08-27T05:02:11;96307.47;;;16.84;100.00
32933;BME280;19444;50.518;10.870;2022-08-27T05:05:08;96306.16;;;16.78;100.00
32933;BME280;19444;50.518;10.870;2022-08-27T05:08:12;96298.88;;;16.98;100.00
32933;BME280;19444;50.518;10.870;2022-08-27T05:11:12;96306.63;;;16.99;100.00
32933;BME280;19444;50.518;10.870;2022-08-27T05:14:13;96291.03;;;16.93;100.00
32933;BME280;19444;50.518;10.870;2022-08-27T05:17:10;96296.34;;;16.89;100.00
32933;BME280;19444;50.518;10.870;2022-08-27T05:20:09;96303.72;;;17.08;100.00
32933;BME280;19444;50.518;10.870;2022-08-27T05:23:06;96296.75;;;17.07;100.00
32933;BME280;19444;50.518;10.870;2022-08-27T05:26:03;96301.16;;;16.96;100.00
32933;BME280;19444;50.518;10.870;2022-08-27T05:29:01;96304.50;;;17.09;100.00
32933;BME280;19444;50.518;10.870;2022-08-27T05:31:58;96295.78;;;16.99;100.00
32933;BME280;19444;50.518;10.870;2022-08-27T05:34:56;96298.41;;;17.12;100.00
32933;BME280;19444;50.518;10.870;2022-08-27T05:37:53;96292.25;;;17.15;100.00
32933;BME280;19444;50.518;10.870;2022-08-27T05:41:07;96294.47;;;17.09;100.00
32933;BME280;19444;50.518;10.870;2022-08-27T05:44:08;96287.13;;;17.10;100.00
32933;BME280;19444;50.518;10.870;2022-08-27T05:47:26;96279.56;;;16.99;100.00
32933;BME280;19444;50.518;10.870;2022-08-27T05:50:25;96287.28;;;17.17;100.00
32933;BME280;19444;50.518;10.870;2022-08-27T05:53:22;96288.38;;;17.31;100.00
32933;BME280;19444;50.518;10.870;2022-08-27T05:56:22;96287.78;;;17.22;100.00
32933;BME280;19444;50.518;10.870;2022-08-27T05:59:19;96286.66;;;17.23;100.00
32933;BME280;19444;50.518;10.870;2022-08-27T06:02:34;96280.25;;;17.31;100.00
32933;BME280;19444;50.518;10.870;2022-08-27T06:05:32;96286.22;;;17.21;100.00
32933;BME280;19444;50.518;10.870;2022-08-27T06:08:30;96294.84;;;17.27;100.00
32933;BME280;19444;50.518;10.870;2022-08-27T06:11:27;96284.88;;;17.31;100.00
32933;BME280;19444;50.518;10.870;2022-08-27T06:14:25;96284.25;;;17.38;100.00
32933;BME280;19444;50.518;10.870;2022-08-27T06:17:22;96302.53;;;17.25;100.00
32933;BME280;19444;50.518;10.870;2022-08-27T06:20:20;96311.88;;;17.27;100.00
32933;BME280;19444;50.518;10.870;2022-08-27T06:23:16;96304.53;;;17.28;100.00
32933;BME280;19444;50.518;10.870;2022-08-27T06:26:25;96318.88;;;17.28;100.00
32933;BME280;19444;50.518;10.870;2022-08-27T06:29:22;96316.75;;;17.38;100.00
32933;BME280;19444;50.518;10.870;2022-08-27T06:32:20;96309.72;;;17.37;100.00
32933;BME280;19444;50.518;10.870;2022-08-27T06:35:19;96317.94;;;17.40;100.00
32933;BME280;19444;50.518;10.870;2022-08-27T06:38:16;96317.94;;;17.40;100.00
32933;BME280;19444;50.518;10.870;2022-08-27T06:41:22;96328.84;;;17.24;100.00
32933;BME280;19444;50.518;10.870;2022-08-27T06:44:20;96320.88;;;17.31;100.00
32933;BME280;19444;50.518;10.870;2022-08-27T06:47:17;96324.56;;;17.23;100.00
32933;BME280;19444;50.518;10.870;2022-08-27T06:50:17;96335.03;;;17.25;100.00
32933;BME280;19444;50.518;10.870;2022-08-27T06:53:21;96336.13;;;17.40;100.00
32933;BME280;19444;50.518;10.870;2022-08-27T06:56:21;96323.28;;;17.37;100.00
32933;BME280;19444;50.518;10.870;2022-08-27T06:59:18;96328.50;;;17.45;100.00
32933;BME280;19444;50.518;10.870;2022-08-27T07:02:15;96325.34;;;17.43;100.00
32933;BME280;19444;50.518;10.870;2022-08-27T07:05:13;96324.16;;;17.41;100.00
32933;BME280;19444;50.518;10.870;2022-08-27T07:08:10;96334.84;;;17.33;100.00
32933;BME280;19444;50.518;10.870;2022-08-27T07:11:09;96341.03;;;17.34;100.00
32933;BME280;19444;50.518;10.870;2022-08-27T07:14:07;96349.88;;;17.31;100.00
32933;BME280;19444;50.518;10.870;2022-08-27T07:17:05;96352.00;;;17.22;100.00
32933;BME280;19444;50.518;10.870;2022-08-27T07:20:14;96356.28;;;17.23;100.00
32933;BME280;19444;50.518;10.870;2022-08-27T07:23:14;96355.00;;;17.36;100.00
32933;BME280;19444;50.518;10.870;2022-08-27T07:26:13;96361.00;;;17.45;100.00
32933;BME280;19444;50.518;10.870;2022-08-27T07:29:13;96350.31;;;17.52;100.00
32933;BME280;19444;50.518;10.870;2022-08-27T07:32:10;96353.59;;;17.42;100.00
32933;BME280;19444;50.518;10.870;2022-08-27T07:35:08;96362.16;;;17.44;100.00
32933;BME280;19444;50.518;10.870;2022-08-27T07:38:05;96363.16;;;17.55;100.00
32933;BME280;19444;50.518;10.870;2022-08-27T07:41:10;96366.31;;;17.57;100.00
32933;BME280;19444;50.518;10.870;2022-08-27T07:44:07;96367.09;;;17.58;100.00
32933;BME280;19444;50.518;10.870;2022-08-27T07:47:31;96365.94;;;17.59;100.00
32933;BME280;19444;50.518;10.870;2022-08-27T07:50:27;96364.44;;;17.61;100.00
32933;BME280;19444;50.518;10.870;2022-08-27T07:53:24;96371.53;;;17.66;100.00
32933;BME280;19444;50.518;10.870;2022-08-27T07:56:21;96370.28;;;17.63;100.00
32933;BME280;19444;50.518;10.870;2022-08-27T07:59:19;96364.03;;;17.59;100.00
32933;BME280;19444;50.518;10.870;2022-08-27T08:02:19;96372.31;;;17.67;100.00
32933;BME280;19444;50.518;10.870;2022-08-27T08:05:16;96367.53;;;17.79;100.00
32933;BME280;19444;50.518;10.870;2022-08-27T08:08:14;96376.03;;;17.78;100.00
32933;BME280;19444;50.518;10.870;2022-08-27T08:11:13;96374.94;;;17.82;100.00
32933;BME280;19444;50.518;10.870;2022-08-27T08:14:11;96381.47;;;17.78;100.00
32933;BME280;19444;50.518;10.870;2022-08-27T08:17:08;96379.91;;;17.77;100.00
32933;BME280;19444;50.518;10.870;2022-08-27T08:20:08;96377.25;;;17.80;100.00
32933;BME280;19444;50.518;10.870;2022-08-27T08:23:22;96388.72;;;17.74;100.00
32933;BME280;19444;50.518;10.870;2022-08-27T08:26:19;96385.59;;;17.72;100.00
32933;BME280;19444;50.518;10.870;2022-08-27T08:29:17;96381.88;;;17.80;100.00
32933;BME280;19444;50.518;10.870;2022-08-27T08:32:14;96383.53;;;17.84;100.00
32933;BME280;19444;50.518;10.870;2022-08-27T08:35:12;96387.09;;;17.88;100.00
32933;BME280;19444;50.518;10.870;2022-08-27T08:38:09;96390.31;;;17.94;100.00
32933;BME280;19444;50.518;10.870;2022-08-27T08:44:39;96400.44;;;17.97;100.00
32933;BME280;19444;50.518;10.870;2022-08-27T08:48:04;96398.13;;;18.18;100.00
32933;BME280;19444;50.518;10.870;2022-08-27T08:54:19;96394.94;;;18.13;100.00
32933;BME280;19444;50.518;10.870;2022-08-27T08:57:25;96393.38;;;18.12;100.00
32933;BME280;19444;50.518;10.870;2022-08-27T09:00:23;96391.81;;;18.11;100.00
32933;BME280;19444;50.518;10.870;2022-08-27T09:03:20;96386.00;;;18.12;100.00
32933;BME280;19444;50.518;10.870;2022-08-27T09:13:42;96393.16;;;18.21;100.00
32933;BME280;19444;50.518;10.870;2022-08-27T09:16:42;96394.16;;;18.35;100.00
32933;BME280;19444;50.518;10.870;2022-08-27T09:19:40;96398.44;;;18.36;100.00
32933;BME280;19444;50.518;10.870;2022-08-27T09:23:01;96394.16;;;18.35;100.00
32933;BME280;19444;50.518;10.870;2022-08-27T09:26:01;96393.81;;;18.37;100.00
32933;BME280;19444;50.518;10.870;2022-08-27T09:29:00;96394.16;;;18.12;100.00
32933;BME280;19444;50.518;10.870;2022-08-27T09:32:25;96395.63;;;18.29;100.00
32933;BME280;19444;50.518;10.870;2022-08-27T09:35:25;96389.16;;;18.14;100.00
32933;BME280;19444;50.518;10.870;2022-08-27T09:38:32;96389.59;;;17.97;100.00
32933;BME280;19444;50.518;10.870;2022-08-27T09:41:40;96392.84;;;18.06;100.00
32933;BME280;19444;50.518;10.870;2022-08-27T09:44:46;96386.22;;;18.23;100.00
32933;BME280;19444;50.518;10.870;2022-08-27T09:48:05;96388.31;;;18.33;100.00
32933;BME280;19444;50.518;10.870;2022-08-27T09:51:11;96378.13;;;18.27;100.00
32933;BME280;19444;50.518;10.870;2022-08-27T09:54:09;96373.56;;;18.31;100.00
32933;BME280;19444;50.518;10.870;2022-08-27T09:57:09;96382.84;;;18.10;100.00
32933;BME280;19444;50.518;10.870;2022-08-27T10:00:15;96381.78;;;18.15;100.00
32933;BME280;19444;50.518;10.870;2022-08-27T10:03:13;96392.47;;;18.27;100.00
32933;BME280;19444;50.518;10.870;2022-08-27T10:06:10;96394.16;;;18.35;100.00
32933;BME280;19444;50.518;10.870;2022-08-27T10:12:45;96385.66;;;18.14;100.00
32933;BME280;19444;50.518;10.870;2022-08-27T10:19:33;96381.28;;;18.09;100.00
32933;BME280;19444;50.518;10.870;2022-08-27T10:26:10;96382.22;;;18.17;100.00
32933;BME280;19444;50.518;10.870;2022-08-27T10:29:39;96381.06;;;18.18;100.00
32933;BME280;19444;50.518;10.870;2022-08-27T10:33:02;96376.63;;;18.29;100.00
32933;BME280;19444;50.518;10.870;2022-08-27T10:36:22;96371.63;;;18.54;100.00
32933;BME280;19444;50.518;10.870;2022-08-27T10:39:45;96364.19;;;18.70;100.00
32933;BME280;19444;50.518;10.870;2022-08-27T10:49:56;96368.75;;;19.42;100.00
32933;BME280;19444;50.518;10.870;2022-08-27T10:53:32;96364.66;;;19.29;100.00
32933;BME280;19444;50.518;10.870;2022-08-27T10:57:27;96360.03;;;19.29;100.00
32933;BME280;19444;50.518;10.870;2022-08-27T11:00:24;96363.50;;;19.56;100.00
32933;BME280;19444;50.518;10.870;2022-08-27T11:06:43;96358.41;;;19.25;100.00
32933;BME280;19444;50.518;10.870;2022-08-27T11:12:57;96373.03;;;19.17;100.00
32933;BME280;19444;50.518;10.870;2022-08-27T11:15:56;96375.13;;;19.27;100.00
32933;BME280;19444;50.518;10.870;2022-08-27T11:19:21;96368.88;;;19.53;100.00
32933;BME280;19444;50.518;10.870;2022-08-27T11:22:31;96359.81;;;19.68;100.00
32933;BME280;19444;50.518;10.870;2022-08-27T11:25:55;96364.91;;;19.47;100.00
32933;BME280;19444;50.518;10.870;2022-08-27T11:29:06;96357.03;;;19.65;100.00
32933;BME280;19444;50.518;10.870;2022-08-27T11:32:31;96363.72;;;19.44;100.00
32933;BME280;19444;50.518;10.870;2022-08-27T11:39:21;96366.16;;;19.53;100.00
32933;BME280;19444;50.518;10.870;2022-08-27T11:42:54;96368.50;;;19.24;100.00
32933;BME280;19444;50.518;10.870;2022-08-27T11:46:06;96370.66;;;19.12;100.00
32933;BME280;19444;50.518;10.870;2022-08-27T11:49:04;96367.91;;;19.38;100.00
32933;BME280;19444;50.518;10.870;2022-08-27T11:52:05;96374.03;;;19.31;100.00
32933;BME280;19444;50.518;10.870;2022-08-27T11:55:29;96370.59;;;19.35;100.00
32933;BME280;19444;50.518;10.870;2022-08-27T11:58:29;96377.78;;;19.50;100.00
32933;BME280;19444;50.518;10.870;2022-08-27T12:01:48;96369.41;;;19.62;100.00
32933;BME280;19444;50.518;10.870;2022-08-27T12:04:45;96365.38;;;19.79;100.00
32933;BME280;19444;50.518;10.870;2022-08-27T12:07:49;96354.06;;;20.10;100.00
32933;BME280;19444;50.518;10.870;2022-08-27T12:13:59;96356.75;;;20.44;100.00
32933;BME280;19444;50.518;10.870;2022-08-27T12:21:50;96344.97;;;20.36;100.00
32933;BME280;19444;50.518;10.870;2022-08-27T12:24:40;96337.81;;;20.17;100.00
32933;BME280;19444;50.518;10.870;2022-08-27T12:27:39;96345.03;;;20.40;100.00
32933;BME280;19444;50.518;10.870;2022-08-27T12:30:40;96348.31;;;20.19;100.00
32933;BME280;19444;50.518;10.870;2022-08-27T12:33:49;96344.03;;;20.18;100.00
32933;BME280;19444;50.518;10.870;2022-08-27T12:36:49;96344.97;;;20.36;100.00
32933;BME280;19444;50.518;10.870;2022-08-27T12:39:51;96343.81;;;20.34;100.00
32933;BME280;19444;50.518;10.870;2022-08-27T12:42:51;96336.50;;;20.41;100.00
32933;BME280;19444;50.518;10.870;2022-08-27T12:46:18;96341.59;;;20.09;100.00
32933;BME280;19444;50.518;10.870;2022-08-27T12:49:18;96338.88;;;20.09;100.00
32933;BME280;19444;50.518;10.870;2022-08-27T12:57:22;96338.25;;;20.23;100.00
32933;BME280;19444;50.518;10.870;2022-08-27T13:00:23;96332.19;;;20.81;100.00
32933;BME280;19444;50.518;10.870;2022-08-27T13:03:48;96329.34;;;20.67;100.00
32933;BME280;19444;50.518;10.870;2022-08-27T13:06:46;96332.22;;;20.40;100.00
32933;BME280;19444;50.518;10.870;2022-08-27T13:09:43;96327.69;;;20.55;100.00
32933;BME280;19444;50.518;10.870;2022-08-27T13:12:42;96328.34;;;20.93;100.00
32933;BME280;19444;50.518;10.870;2022-08-27T13:15:49;96334.44;;;20.72;100.00
32933;BME280;19444;50.518;10.870;2022-08-27T13:18:50;96338.16;;;20.50;100.00
32933;BME280;19444;50.518;10.870;2022-08-27T13:21:49;96346.66;;;20.44;100.00
32933;BME280;19444;50.518;10.870;2022-08-27T13:24:49;96335.50;;;20.20;100.00
32933;BME280;19444;50.518;10.870;2022-08-27T13:28:12;96338.22;;;20.20;100.00
32933;BME280;19444;50.518;10.870;2022-08-27T13:31:10;96345.34;;;19.94;100.00
32933;BME280;19444;50.518;10.870;2022-08-27T13:34:07;96339.72;;;20.13;100.00
32933;BME280;19444;50.518;10.870;2022-08-27T13:37:20;96342.38;;;20.10;100.00
32933;BME280;19444;50.518;10.870;2022-08-27T13:40:32;96350.78;;;19.94;100.00
32933;BME280;19444;50.518;10.870;2022-08-27T13:43:50;96358.78;;;19.83;100.00
32933;BME280;19444;50.518;10.870;2022-08-27T13:47:08;96345.56;;;19.78;100.00
32933;BME280;19444;50.518;10.870;2022-08-27T13:50:46;96345.69;;;19.93;100.00
32933;BME280;19444;50.518;10.870;2022-08-27T13:53:46;96357.25;;;19.82;100.00
32933;BME280;19444;50.518;10.870;2022-08-27T13:57:09;96342.34;;;20.06;100.00
32933;BME280;19444;50.518;10.870;2022-08-27T14:00:13;96348.41;;;19.93;100.00
32933;BME280;19444;50.518;10.870;2022-08-27T14:03:36;96346.44;;;19.89;100.00
32933;BME280;19444;50.518;10.870;2022-08-27T14:06:44;96343.75;;;19.93;100.00
32933;BME280;19444;50.518;10.870;2022-08-27T14:09:57;96344.22;;;19.99;100.00
32933;BME280;19444;50.518;10.870;2022-08-27T14:13:08;96348.19;;;20.05;100.00
32933;BME280;19444;50.518;10.870;2022-08-27T14:16:27;96352.13;;;19.77;100.00
32933;BME280;19444;50.518;10.870;2022-08-27T14:19:31;96353.22;;;19.69;100.00
32933;BME280;19444;50.518;10.870;2022-08-27T14:22:32;96352.88;;;20.08;100.00
32933;BME280;19444;50.518;10.870;2022-08-27T14:25:30;96356.63;;;19.96;100.00
32933;BME280;19444;50.518;10.870;2022-08-27T14:28:28;96355.38;;;19.90;100.00
32933;BME280;19444;50.518;10.870;2022-08-27T14:31:27;96363.50;;;19.56;100.00
32933;BME280;19444;50.518;10.870;2022-08-27T14:34:24;96365.75;;;19.51;100.00
32933;BME280;19444;50.518;10.870;2022-08-27T14:37:21;96354.47;;;19.75;100.00
32933;BME280;19444;50.518;10.870;2022-08-27T14:40:18;96357.53;;;19.47;100.00
32933;BME280;19444;50.518;10.870;2022-08-27T14:43:15;96348.69;;;19.80;100.00
32933;BME280;19444;50.518;10.870;2022-08-27T14:46:30;96336.19;;;19.76;100.00
32933;BME280;19444;50.518;10.870;2022-08-27T14:49:33;96340.81;;;19.72;100.00
32933;BME280;19444;50.518;10.870;2022-08-27T14:52:31;96345.88;;;19.73;100.00
32933;BME280;19444;50.518;10.870;2022-08-27T14:55:28;96346.75;;;19.54;100.00
32933;BME280;19444;50.518;10.870;2022-08-27T14:58:26;96350.41;;;19.62;100.00
32933;BME280;19444;50.518;10.870;2022-08-27T15:01:25;96343.19;;;19.77;100.00
32933;BME280;19444;50.518;10.870;2022-08-27T15:04:24;96337.41;;;19.82;100.00
32933;BME280;19444;50.518;10.870;2022-08-27T15:07:22;96342.88;;;19.55;100.00
32933;BME280;19444;50.518;10.870;2022-08-27T15:10:20;96339.94;;;19.64;100.00
32933;BME280;19444;50.518;10.870;2022-08-27T15:13:17;96336.53;;;19.71;100.00
32933;BME280;19444;50.518;10.870;2022-08-27T15:16:37;96341.28;;;19.81;100.00
32933;BME280;19444;50.518;10.870;2022-08-27T15:19:35;96340.44;;;19.73;100.00
32933;BME280;19444;50.518;10.870;2022-08-27T15:22:33;96341.34;;;19.84;100.00
32933;BME280;19444;50.518;10.870;2022-08-27T15:25:30;96336.81;;;19.96;100.00
32933;BME280;19444;50.518;10.870;2022-08-27T15:28:28;96341.66;;;19.79;100.00
32933;BME280;19444;50.518;10.870;2022-08-27T15:31:25;96348.59;;;19.73;100.00
32933;BME280;19444;50.518;10.870;2022-08-27T15:34:21;96352.88;;;19.74;100.00
32933;BME280;19444;50.518;10.870;2022-08-27T15:37:18;96347.00;;;19.69;100.00
32933;BME280;19444;50.518;10.870;2022-08-27T15:40:17;96355.59;;;19.74;100.00
32933;BME280;19444;50.518;10.870;2022-08-27T15:43:16;96350.34;;;19.92;100.00
32933;BME280;19444;50.518;10.870;2022-08-27T15:46:13;96346.31;;;19.79;100.00
32933;BME280;19444;50.518;10.870;2022-08-27T15:49:13;96351.00;;;19.78;100.00
32933;BME280;19444;50.518;10.870;2022-08-27T15:52:14;96354.47;;;19.75;100.00
32933;BME280;19444;50.518;10.870;2022-08-27T15:55:22;96358.66;;;19.69;100.00
32933;BME280;19444;50.518;10.870;2022-08-27T15:58:20;96354.03;;;19.73;100.00
32933;BME280;19444;50.518;10.870;2022-08-27T16:01:28;96359.94;;;19.52;100.00
32933;BME280;19444;50.518;10.870;2022-08-27T16:04:26;96355.25;;;19.49;100.00
32933;BME280;19444;50.518;10.870;2022-08-27T16:07:23;96360.59;;;19.42;100.00
32933;BME280;19444;50.518;10.870;2022-08-27T16:10:20;96359.03;;;19.68;100.00
32933;BME280;19444;50.518;10.870;2022-08-27T16:13:17;96361.47;;;19.76;100.00
32933;BME280;19444;50.518;10.870;2022-08-27T16:16:25;96370.72;;;19.72;100.00
32933;BME280;19444;50.518;10.870;2022-08-27T16:19:23;96373.25;;;19.31;100.00
32933;BME280;19444;50.518;10.870;2022-08-27T16:22:20;96367.97;;;19.42;100.00
32933;BME280;19444;50.518;10.870;2022-08-27T16:25:17;96359.47;;;19.47;100.00
32933;BME280;19444;50.518;10.870;2022-08-27T16:28:19;96367.59;;;19.43;100.00
32933;BME280;19444;50.518;10.870;2022-08-27T16:31:16;96366.53;;;19.21;100.00
32933;BME280;19444;50.518;10.870;2022-08-27T16:34:26;96363.22;;;19.35;100.00
32933;BME280;19444;50.518;10.870;2022-08-27T16:37:24;96367.31;;;19.22;100.00